Quarteles, New Mexico
Current Conditions -  °F | °C
As of 4:55 AM on Monday 22 Dec 2014 (Local Time) from KLAM Reporting Station
Clear Clear  
Wind Chill: 42°   Ceiling: Unl
Heat Index: 42°   Visibility: 10mi
Dew Point: 27°   Wind: 3mph
Humidity: 54%   Direction: 100°E
Pressure: 29.87"   Gusts: 28mph
Location:  35.9775°N, 106.158°W
Report Text: KLAM 221155Z AUTO 10003G24KT 10SM CLR 06/M03 A2987 RMK AO2 T00581030 10070 20043
Loading
Personal Weather Stations






























Interactive Weather Map New forecast layout! Learn more

10-Day Weather Forecast

Advertisements
Track Severe Weather on mobile